sensor_id;sensor_type;location;lat;lon;timestamp;P1;durP1;ratioP1;P2;durP2;ratioP2
9080;SDS011;13509;50.760;6.080;2023-05-14T00:01:05;6.97;;;5.03;;
9080;SDS011;13509;50.760;6.080;2023-05-14T00:03:33;6.00;;;5.37;;
9080;SDS011;13509;50.760;6.080;2023-05-14T00:06:02;6.33;;;5.03;;
9080;SDS011;13509;50.760;6.080;2023-05-14T00:08:32;6.77;;;5.37;;
9080;SDS011;13509;50.760;6.080;2023-05-14T00:11:00;5.73;;;5.00;;
9080;SDS011;13509;50.760;6.080;2023-05-14T00:13:29;5.80;;;5.20;;
9080;SDS011;13509;50.760;6.080;2023-05-14T00:15:57;7.17;;;5.60;;
9080;SDS011;13509;50.760;6.080;2023-05-14T00:18:25;7.60;;;5.50;;
9080;SDS011;13509;50.760;6.080;2023-05-14T00:20:54;9.80;;;5.97;;
9080;SDS011;13509;50.760;6.080;2023-05-14T00:23:22;6.77;;;5.67;;
9080;SDS011;13509;50.760;6.080;2023-05-14T00:25:51;7.17;;;5.40;;
9080;SDS011;13509;50.760;6.080;2023-05-14T00:28:20;9.47;;;6.03;;
9080;SDS011;13509;50.760;6.080;2023-05-14T00:30:48;8.93;;;6.23;;
9080;SDS011;13509;50.760;6.080;2023-05-14T00:33:16;11.10;;;5.87;;
9080;SDS011;13509;50.760;6.080;2023-05-14T00:35:44;9.80;;;6.20;;
9080;SDS011;13509;50.760;6.080;2023-05-14T00:38:13;8.47;;;6.03;;
9080;SDS011;13509;50.760;6.080;2023-05-14T00:40:44;7.37;;;5.87;;
9080;SDS011;13509;50.760;6.080;2023-05-14T00:43:18;8.57;;;6.37;;
9080;SDS011;13509;50.760;6.080;2023-05-14T00:45:48;8.23;;;6.40;;
9080;SDS011;13509;50.760;6.080;2023-05-14T00:48:16;6.83;;;5.73;;
9080;SDS011;13509;50.760;6.080;2023-05-14T00:50:45;6.87;;;5.83;;
9080;SDS011;13509;50.760;6.080;2023-05-14T00:53:13;10.27;;;6.13;;
9080;SDS011;13509;50.760;6.080;2023-05-14T00:55:41;7.73;;;6.40;;
9080;SDS011;13509;50.760;6.080;2023-05-14T00:58:10;8.37;;;6.30;;
9080;SDS011;13509;50.760;6.080;2023-05-14T01:00:40;7.73;;;6.23;;
9080;SDS011;13509;50.760;6.080;2023-05-14T01:03:08;8.60;;;6.60;;
9080;SDS011;13509;50.760;6.080;2023-05-14T01:05:38;7.07;;;6.20;;
9080;SDS011;13509;50.760;6.080;2023-05-14T01:08:10;9.33;;;6.80;;
9080;SDS011;13509;50.760;6.080;2023-05-14T01:10:41;11.20;;;6.33;;
9080;SDS011;13509;50.760;6.080;2023-05-14T01:13:12;7.73;;;6.53;;
9080;SDS011;13509;50.760;6.080;2023-05-14T01:15:47;8.10;;;6.67;;
9080;SDS011;13509;50.760;6.080;2023-05-14T01:18:16;11.10;;;6.30;;
9080;SDS011;13509;50.760;6.080;2023-05-14T01:20:45;7.97;;;6.80;;
9080;SDS011;13509;50.760;6.080;2023-05-14T01:23:18;11.43;;;6.23;;
9080;SDS011;13509;50.760;6.080;2023-05-14T01:25:47;7.33;;;6.43;;
9080;SDS011;13509;50.760;6.080;2023-05-14T01:28:16;7.77;;;6.57;;
9080;SDS011;13509;50.760;6.080;2023-05-14T01:30:47;9.07;;;6.87;;
9080;SDS011;13509;50.760;6.080;2023-05-14T01:33:17;8.00;;;7.20;;
9080;SDS011;13509;50.760;6.080;2023-05-14T01:35:46;9.47;;;6.63;;
9080;SDS011;13509;50.760;6.080;2023-05-14T01:38:15;7.13;;;6.43;;
9080;SDS011;13509;50.760;6.080;2023-05-14T01:40:46;9.80;;;6.87;;
9080;SDS011;13509;50.760;6.080;2023-05-14T01:43:14;8.20;;;6.70;;
9080;SDS011;13509;50.760;6.080;2023-05-14T01:45:43;7.67;;;6.67;;
9080;SDS011;13509;50.760;6.080;2023-05-14T01:48:11;7.93;;;6.60;;
9080;SDS011;13509;50.760;6.080;2023-05-14T01:50:39;9.30;;;6.60;;
9080;SDS011;13509;50.760;6.080;2023-05-14T01:53:08;11.27;;;7.27;;
9080;SDS011;13509;50.760;6.080;2023-05-14T01:55:36;7.67;;;6.37;;
9080;SDS011;13509;50.760;6.080;2023-05-14T01:58:05;9.73;;;7.07;;
9080;SDS011;13509;50.760;6.080;2023-05-14T02:00:33;13.07;;;8.07;;
9080;SDS011;13509;50.760;6.080;2023-05-14T02:03:02;9.53;;;7.10;;
9080;SDS011;13509;50.760;6.080;2023-05-14T02:05:30;9.90;;;7.23;;
9080;SDS011;13509;50.760;6.080;2023-05-14T02:07:58;7.80;;;6.83;;
9080;SDS011;13509;50.760;6.080;2023-05-14T02:10:26;8.63;;;7.53;;
9080;SDS011;13509;50.760;6.080;2023-05-14T02:12:54;8.63;;;7.23;;
9080;SDS011;13509;50.760;6.080;2023-05-14T02:15:24;8.70;;;7.27;;
9080;SDS011;13509;50.760;6.080;2023-05-14T02:17:52;9.00;;;7.70;;
9080;SDS011;13509;50.760;6.080;2023-05-14T02:20:20;8.93;;;8.00;;
9080;SDS011;13509;50.760;6.080;2023-05-14T02:22:49;7.90;;;7.10;;
9080;SDS011;13509;50.760;6.080;2023-05-14T02:25:17;11.83;;;7.97;;
9080;SDS011;13509;50.760;6.080;2023-05-14T02:27:46;12.67;;;7.90;;
9080;SDS011;13509;50.760;6.080;2023-05-14T02:30:14;10.87;;;8.47;;
9080;SDS011;13509;50.760;6.080;2023-05-14T02:32:44;11.33;;;8.27;;
9080;SDS011;13509;50.760;6.080;2023-05-14T02:35:12;9.73;;;8.27;;
9080;SDS011;13509;50.760;6.080;2023-05-14T02:37:40;10.97;;;8.97;;
9080;SDS011;13509;50.760;6.080;2023-05-14T02:40:09;10.57;;;7.37;;
9080;SDS011;13509;50.760;6.080;2023-05-14T02:42:37;8.67;;;7.77;;
9080;SDS011;13509;50.760;6.080;2023-05-14T02:45:06;10.30;;;8.40;;
9080;SDS011;13509;50.760;6.080;2023-05-14T02:47:34;9.33;;;8.33;;
9080;SDS011;13509;50.760;6.080;2023-05-14T02:50:05;9.17;;;7.80;;
9080;SDS011;13509;50.760;6.080;2023-05-14T02:52:34;9.97;;;8.30;;
9080;SDS011;13509;50.760;6.080;2023-05-14T02:55:02;9.83;;;8.40;;
9080;SDS011;13509;50.760;6.080;2023-05-14T02:57:30;9.53;;;7.73;;
9080;SDS011;13509;50.760;6.080;2023-05-14T02:59:58;8.73;;;7.87;;
9080;SDS011;13509;50.760;6.080;2023-05-14T03:02:27;8.93;;;8.03;;
9080;SDS011;13509;50.760;6.080;2023-05-14T03:04:56;11.00;;;8.53;;
9080;SDS011;13509;50.760;6.080;2023-05-14T03:07:25;11.27;;;7.93;;
9080;SDS011;13509;50.760;6.080;2023-05-14T03:09:53;10.20;;;8.23;;
9080;SDS011;13509;50.760;6.080;2023-05-14T03:12:22;9.13;;;8.17;;
9080;SDS011;13509;50.760;6.080;2023-05-14T03:14:50;10.40;;;7.73;;
9080;SDS011;13509;50.760;6.080;2023-05-14T03:17:18;15.17;;;8.37;;
9080;SDS011;13509;50.760;6.080;2023-05-14T03:19:46;10.03;;;8.20;;
9080;SDS011;13509;50.760;6.080;2023-05-14T03:22:14;9.83;;;7.53;;
9080;SDS011;13509;50.760;6.080;2023-05-14T03:24:44;9.70;;;7.77;;
9080;SDS011;13509;50.760;6.080;2023-05-14T03:27:12;9.67;;;8.53;;
9080;SDS011;13509;50.760;6.080;2023-05-14T03:29:40;10.97;;;8.27;;
9080;SDS011;13509;50.760;6.080;2023-05-14T03:32:08;11.27;;;8.10;;
9080;SDS011;13509;50.760;6.080;2023-05-14T03:34:37;10.57;;;8.30;;
9080;SDS011;13509;50.760;6.080;2023-05-14T03:37:05;9.07;;;8.10;;
9080;SDS011;13509;50.760;6.080;2023-05-14T03:39:33;12.77;;;9.17;;
9080;SDS011;13509;50.760;6.080;2023-05-14T03:42:03;12.57;;;7.97;;
9080;SDS011;13509;50.760;6.080;2023-05-14T03:44:31;11.53;;;9.00;;
9080;SDS011;13509;50.760;6.080;2023-05-14T03:46:59;9.13;;;8.13;;
9080;SDS011;13509;50.760;6.080;2023-05-14T03:49:28;9.07;;;8.03;;
9080;SDS011;13509;50.760;6.080;2023-05-14T03:51:56;10.43;;;8.30;;
9080;SDS011;13509;50.760;6.080;2023-05-14T03:54:24;11.40;;;8.63;;
9080;SDS011;13509;50.760;6.080;2023-05-14T03:56:52;11.23;;;9.30;;
9080;SDS011;13509;50.760;6.080;2023-05-14T03:59:22;11.00;;;7.63;;
9080;SDS011;13509;50.760;6.080;2023-05-14T04:01:50;11.33;;;8.23;;
9080;SDS011;13509;50.760;6.080;2023-05-14T04:04:18;10.70;;;9.00;;
9080;SDS011;13509;50.760;6.080;2023-05-14T04:06:47;10.07;;;8.60;;
9080;SDS011;13509;50.760;6.080;2023-05-14T04:09:15;13.50;;;8.77;;
9080;SDS011;13509;50.760;6.080;2023-05-14T04:11:43;12.73;;;8.80;;
9080;SDS011;13509;50.760;6.080;2023-05-14T04:14:11;10.30;;;8.97;;
9080;SDS011;13509;50.760;6.080;2023-05-14T04:16:41;12.53;;;8.27;;
9080;SDS011;13509;50.760;6.080;2023-05-14T04:19:09;10.60;;;8.40;;
9080;SDS011;13509;50.760;6.080;2023-05-14T04:21:37;9.03;;;7.90;;
9080;SDS011;13509;50.760;6.080;2023-05-14T04:24:06;11.10;;;8.53;;
9080;SDS011;13509;50.760;6.080;2023-05-14T04:26:34;9.00;;;7.50;;
9080;SDS011;13509;50.760;6.080;2023-05-14T04:29:02;7.70;;;6.90;;
9080;SDS011;13509;50.760;6.080;2023-05-14T04:31:30;7.77;;;6.50;;
9080;SDS011;13509;50.760;6.080;2023-05-14T04:34:00;7.30;;;6.43;;
9080;SDS011;13509;50.760;6.080;2023-05-14T04:36:28;8.23;;;6.10;;
9080;SDS011;13509;50.760;6.080;2023-05-14T04:38:56;6.73;;;6.00;;
9080;SDS011;13509;50.760;6.080;2023-05-14T04:41:25;7.83;;;6.30;;
9080;SDS011;13509;50.760;6.080;2023-05-14T04:43:54;7.53;;;5.63;;
9080;SDS011;13509;50.760;6.080;2023-05-14T04:46:22;6.10;;;5.40;;
9080;SDS011;13509;50.760;6.080;2023-05-14T04:48:50;7.30;;;6.40;;
9080;SDS011;13509;50.760;6.080;2023-05-14T04:51:20;7.07;;;6.07;;
9080;SDS011;13509;50.760;6.080;2023-05-14T04:53:48;7.10;;;6.20;;
9080;SDS011;13509;50.760;6.080;2023-05-14T04:56:16;6.73;;;6.03;;
9080;SDS011;13509;50.760;6.080;2023-05-14T04:58:44;6.70;;;6.00;;
9080;SDS011;13509;50.760;6.080;2023-05-14T05:01:13;6.70;;;6.00;;
9080;SDS011;13509;50.760;6.080;2023-05-14T05:03:41;10.07;;;6.00;;
9080;SDS011;13509;50.760;6.080;2023-05-14T05:06:09;6.20;;;5.60;;
9080;SDS011;13509;50.760;6.080;2023-05-14T05:08:39;7.60;;;6.10;;
9080;SDS011;13509;50.760;6.080;2023-05-14T05:11:07;7.33;;;6.27;;
9080;SDS011;13509;50.760;6.080;2023-05-14T05:13:35;6.73;;;6.03;;
9080;SDS011;13509;50.760;6.080;2023-05-14T05:16:03;6.87;;;6.00;;
9080;SDS011;13509;50.760;6.080;2023-05-14T05:18:32;7.33;;;6.23;;
9080;SDS011;13509;50.760;6.080;2023-05-14T05:21:00;7.43;;;6.07;;
9080;SDS011;13509;50.760;6.080;2023-05-14T05:23:28;6.80;;;6.13;;
9080;SDS011;13509;50.760;6.080;2023-05-14T05:25:58;8.00;;;6.23;;
9080;SDS011;13509;50.760;6.080;2023-05-14T05:28:26;9.47;;;6.70;;
9080;SDS011;13509;50.760;6.080;2023-05-14T05:30:54;9.73;;;8.47;;
9080;SDS011;13509;50.760;6.080;2023-05-14T05:33:22;10.73;;;8.73;;
9080;SDS011;13509;50.760;6.080;2023-05-14T05:35:50;8.23;;;7.43;;
9080;SDS011;13509;50.760;6.080;2023-05-14T05:38:19;11.50;;;7.97;;
9080;SDS011;13509;50.760;6.080;2023-05-14T05:40:47;11.97;;;8.80;;
9080;SDS011;13509;50.760;6.080;2023-05-14T05:43:16;10.10;;;8.83;;
9080;SDS011;13509;50.760;6.080;2023-05-14T05:45:45;11.00;;;8.77;;
9080;SDS011;13509;50.760;6.080;2023-05-14T05:48:13;12.07;;;9.17;;
9080;SDS011;13509;50.760;6.080;2023-05-14T05:50:41;11.83;;;10.00;;
9080;SDS011;13509;50.760;6.080;2023-05-14T05:53:12;13.20;;;10.10;;
9080;SDS011;13509;50.760;6.080;2023-05-14T05:55:41;9.67;;;8.67;;
9080;SDS011;13509;50.760;6.080;2023-05-14T05:58:09;13.37;;;8.60;;
9080;SDS011;13509;50.760;6.080;2023-05-14T06:00:42;11.00;;;8.70;;
9080;SDS011;13509;50.760;6.080;2023-05-14T06:03:10;11.00;;;9.03;;
9080;SDS011;13509;50.760;6.080;2023-05-14T06:05:38;10.13;;;8.43;;
9080;SDS011;13509;50.760;6.080;2023-05-14T06:08:07;9.40;;;7.37;;
9080;SDS011;13509;50.760;6.080;2023-05-14T06:10:35;6.93;;;6.27;;
9080;SDS011;13509;50.760;6.080;2023-05-14T06:13:03;7.43;;;6.63;;
9080;SDS011;13509;50.760;6.080;2023-05-14T06:15:32;7.17;;;5.83;;
9080;SDS011;13509;50.760;6.080;2023-05-14T06:18:01;7.40;;;5.97;;
9080;SDS011;13509;50.760;6.080;2023-05-14T06:20:29;8.40;;;6.90;;
9080;SDS011;13509;50.760;6.080;2023-05-14T06:22:57;7.25;;;6.55;;
9080;SDS011;13509;50.760;6.080;2023-05-14T06:25:26;9.13;;;6.20;;
9080;SDS011;13509;50.760;6.080;2023-05-14T06:27:54;7.17;;;6.57;;
9080;SDS011;13509;50.760;6.080;2023-05-14T06:30:22;7.38;;;6.60;;
9080;SDS011;13509;50.760;6.080;2023-05-14T06:32:51;8.17;;;7.30;;
9080;SDS011;13509;50.760;6.080;2023-05-14T06:35:22;8.97;;;7.07;;
9080;SDS011;13509;50.760;6.080;2023-05-14T06:37:50;9.80;;;6.75;;
9080;SDS011;13509;50.760;6.080;2023-05-14T06:40:18;8.75;;;7.32;;
9080;SDS011;13509;50.760;6.080;2023-05-14T06:42:47;7.80;;;6.40;;
9080;SDS011;13509;50.760;6.080;2023-05-14T06:45:15;7.40;;;6.70;;
9080;SDS011;13509;50.760;6.080;2023-05-14T06:47:43;8.25;;;7.32;;
9080;SDS011;13509;50.760;6.080;2023-05-14T06:50:12;8.15;;;7.35;;
9080;SDS011;13509;50.760;6.080;2023-05-14T06:52:41;7.10;;;6.50;;
9080;SDS011;13509;50.760;6.080;2023-05-14T06:55:10;8.43;;;7.63;;
9080;SDS011;13509;50.760;6.080;2023-05-14T06:57:38;10.18;;;8.93;;
9080;SDS011;13509;50.760;6.080;2023-05-14T07:00:07;11.48;;;9.18;;
9080;SDS011;13509;50.760;6.080;2023-05-14T07:02:35;11.93;;;10.57;;
9080;SDS011;13509;50.760;6.080;2023-05-14T07:05:03;13.27;;;11.30;;
9080;SDS011;13509;50.760;6.080;2023-05-14T07:07:32;12.70;;;11.37;;
9080;SDS011;13509;50.760;6.080;2023-05-14T07:10:01;13.27;;;11.50;;
9080;SDS011;13509;50.760;6.080;2023-05-14T07:12:30;13.53;;;12.13;;
9080;SDS011;13509;50.760;6.080;2023-05-14T07:14:58;15.70;;;12.43;;
9080;SDS011;13509;50.760;6.080;2023-05-14T07:17:26;14.17;;;12.77;;
9080;SDS011;13509;50.760;6.080;2023-05-14T07:19:54;14.17;;;12.67;;
9080;SDS011;13509;50.760;6.080;2023-05-14T07:22:23;14.43;;;12.70;;
9080;SDS011;13509;50.760;6.080;2023-05-14T07:24:51;14.47;;;12.97;;
9080;SDS011;13509;50.760;6.080;2023-05-14T07:27:20;16.00;;;13.63;;
9080;SDS011;13509;50.760;6.080;2023-05-14T07:29:48;16.37;;;14.60;;
9080;SDS011;13509;50.760;6.080;2023-05-14T07:32:17;17.40;;;15.60;;
9080;SDS011;13509;50.760;6.080;2023-05-14T07:34:45;17.03;;;15.23;;
9080;SDS011;13509;50.760;6.080;2023-05-14T07:37:13;18.00;;;14.97;;
9080;SDS011;13509;50.760;6.080;2023-05-14T07:39:42;18.43;;;15.23;;
9080;SDS011;13509;50.760;6.080;2023-05-14T07:42:10;18.23;;;14.63;;
9080;SDS011;13509;50.760;6.080;2023-05-14T07:44:54;19.90;;;17.03;;
9080;SDS011;13509;50.760;6.080;2023-05-14T07:47:23;20.40;;;16.60;;
9080;SDS011;13509;50.760;6.080;2023-05-14T07:49:53;20.10;;;17.27;;
9080;SDS011;13509;50.760;6.080;2023-05-14T07:52:21;23.00;;;18.13;;
9080;SDS011;13509;50.760;6.080;2023-05-14T07:54:49;26.47;;;18.83;;
9080;SDS011;13509;50.760;6.080;2023-05-14T07:57:18;21.37;;;19.07;;
9080;SDS011;13509;50.760;6.080;2023-05-14T07:59:47;23.13;;;19.37;;
9080;SDS011;13509;50.760;6.080;2023-05-14T08:02:17;22.33;;;19.23;;
9080;SDS011;13509;50.760;6.080;2023-05-14T08:04:45;24.00;;;19.30;;
9080;SDS011;13509;50.760;6.080;2023-05-14T08:07:14;27.30;;;20.50;;
9080;SDS011;13509;50.760;6.080;2023-05-14T08:09:42;26.87;;;20.83;;
9080;SDS011;13509;50.760;6.080;2023-05-14T08:12:10;23.93;;;20.20;;
9080;SDS011;13509;50.760;6.080;2023-05-14T08:14:39;23.03;;;20.57;;
9080;SDS011;13509;50.760;6.080;2023-05-14T08:17:07;26.33;;;23.27;;
9080;SDS011;13509;50.760;6.080;2023-05-14T08:19:37;26.67;;;22.27;;
9080;SDS011;13509;50.760;6.080;2023-05-14T08:22:05;24.67;;;21.97;;
9080;SDS011;13509;50.760;6.080;2023-05-14T08:24:33;26.17;;;22.10;;
9080;SDS011;13509;50.760;6.080;2023-05-14T08:27:01;28.37;;;22.00;;
9080;SDS011;13509;50.760;6.080;2023-05-14T08:29:30;26.40;;;22.57;;
9080;SDS011;13509;50.760;6.080;2023-05-14T08:31:58;27.60;;;22.60;;
9080;SDS011;13509;50.760;6.080;2023-05-14T08:34:42;26.40;;;23.43;;
9080;SDS011;13509;50.760;6.080;2023-05-14T08:37:10;31.10;;;24.37;;
9080;SDS011;13509;50.760;6.080;2023-05-14T08:39:38;30.87;;;25.03;;
9080;SDS011;13509;50.760;6.080;2023-05-14T08:42:07;26.37;;;23.53;;
9080;SDS011;13509;50.760;6.080;2023-05-14T08:44:38;28.07;;;23.37;;
9080;SDS011;13509;50.760;6.080;2023-05-14T08:47:10;27.97;;;24.47;;
9080;SDS011;13509;50.760;6.080;2023-05-14T08:49:40;26.60;;;23.80;;
9080;SDS011;13509;50.760;6.080;2023-05-14T08:52:09;28.70;;;25.37;;
9080;SDS011;13509;50.760;6.080;2023-05-14T08:54:38;29.83;;;26.10;;
9080;SDS011;13509;50.760;6.080;2023-05-14T08:57:07;30.07;;;25.60;;
9080;SDS011;13509;50.760;6.080;2023-05-14T08:59:36;27.00;;;24.17;;
9080;SDS011;13509;50.760;6.080;2023-05-14T09:02:04;28.67;;;25.53;;
9080;SDS011;13509;50.760;6.080;2023-05-14T09:04:33;28.43;;;25.43;;
9080;SDS011;13509;50.760;6.080;2023-05-14T09:07:03;27.10;;;24.17;;
9080;SDS011;13509;50.760;6.080;2023-05-14T09:09:33;27.57;;;24.77;;
9080;SDS011;13509;50.760;6.080;2023-05-14T09:12:02;27.20;;;24.20;;
9080;SDS011;13509;50.760;6.080;2023-05-14T09:14:31;26.67;;;23.97;;
9080;SDS011;13509;50.760;6.080;2023-05-14T09:17:00;27.75;;;24.70;;
9080;SDS011;13509;50.760;6.080;2023-05-14T09:19:28;28.00;;;25.20;;
9080;SDS011;13509;50.760;6.080;2023-05-14T09:21:56;28.02;;;25.23;;
9080;SDS011;13509;50.760;6.080;2023-05-14T09:24:25;27.63;;;24.70;;
9080;SDS011;13509;50.760;6.080;2023-05-14T09:26:56;27.52;;;24.90;;
9080;SDS011;13509;50.760;6.080;2023-05-14T09:29:24;29.30;;;26.13;;
9080;SDS011;13509;50.760;6.080;2023-05-14T09:31:53;29.20;;;26.33;;
9080;SDS011;13509;50.760;6.080;2023-05-14T09:34:25;29.83;;;26.70;;
9080;SDS011;13509;50.760;6.080;2023-05-14T09:36:54;30.90;;;27.70;;
9080;SDS011;13509;50.760;6.080;2023-05-14T09:39:23;28.20;;;24.90;;
9080;SDS011;13509;50.760;6.080;2023-05-14T09:41:52;30.35;;;27.20;;
9080;SDS011;13509;50.760;6.080;2023-05-14T09:44:22;29.33;;;26.17;;
9080;SDS011;13509;50.760;6.080;2023-05-14T09:46:51;29.13;;;26.20;;
9080;SDS011;13509;50.760;6.080;2023-05-14T09:49:19;28.90;;;25.90;;
9080;SDS011;13509;50.760;6.080;2023-05-14T09:51:49;34.33;;;27.27;;
9080;SDS011;13509;50.760;6.080;2023-05-14T09:54:20;30.93;;;27.57;;
9080;SDS011;13509;50.760;6.080;2023-05-14T09:56:48;30.77;;;27.77;;
9080;SDS011;13509;50.760;6.080;2023-05-14T09:59:19;32.37;;;28.97;;
9080;SDS011;13509;50.760;6.080;2023-05-14T10:01:48;30.40;;;27.27;;
9080;SDS011;13509;50.760;6.080;2023-05-14T10:04:17;30.87;;;27.57;;
9080;SDS011;13509;50.760;6.080;2023-05-14T10:06:46;33.07;;;29.37;;
9080;SDS011;13509;50.760;6.080;2023-05-14T10:09:16;31.57;;;28.17;;
9080;SDS011;13509;50.760;6.080;2023-05-14T10:11:48;34.00;;;27.73;;
9080;SDS011;13509;50.760;6.080;2023-05-14T10:14:21;37.80;;;30.03;;
9080;SDS011;13509;50.760;6.080;2023-05-14T10:16:53;33.30;;;29.87;;
9080;SDS011;13509;50.760;6.080;2023-05-14T10:19:23;31.30;;;27.73;;
9080;SDS011;13509;50.760;6.080;2023-05-14T10:21:52;31.77;;;27.90;;
9080;SDS011;13509;50.760;6.080;2023-05-14T10:24:20;31.80;;;27.73;;
9080;SDS011;13509;50.760;6.080;2023-05-14T10:26:49;33.40;;;28.00;;
9080;SDS011;13509;50.760;6.080;2023-05-14T10:29:17;30.37;;;27.10;;
9080;SDS011;13509;50.760;6.080;2023-05-14T10:31:46;32.87;;;28.67;;
9080;SDS011;13509;50.760;6.080;2023-05-14T10:34:32;35.27;;;30.23;;
9080;SDS011;13509;50.760;6.080;2023-05-14T10:37:03;33.97;;;29.10;;
9080;SDS011;13509;50.760;6.080;2023-05-14T10:39:44;30.73;;;26.67;;
9080;SDS011;13509;50.760;6.080;2023-05-14T10:42:14;29.57;;;26.10;;
9080;SDS011;13509;50.760;6.080;2023-05-14T10:44:51;34.00;;;28.33;;
9080;SDS011;13509;50.760;6.080;2023-05-14T10:47:20;36.03;;;30.70;;
9080;SDS011;13509;50.760;6.080;2023-05-14T10:49:52;34.30;;;29.30;;
9080;SDS011;13509;50.760;6.080;2023-05-14T10:52:20;34.47;;;28.43;;
9080;SDS011;13509;50.760;6.080;2023-05-14T10:54:49;32.83;;;28.80;;
9080;SDS011;13509;50.760;6.080;2023-05-14T10:57:18;37.37;;;28.67;;
9080;SDS011;13509;50.760;6.080;2023-05-14T10:59:47;34.67;;;28.40;;
9080;SDS011;13509;50.760;6.080;2023-05-14T11:02:19;32.57;;;26.60;;
9080;SDS011;13509;50.760;6.080;2023-05-14T11:04:52;34.70;;;29.10;;
9080;SDS011;13509;50.760;6.080;2023-05-14T11:07:22;37.73;;;30.00;;
9080;SDS011;13509;50.760;6.080;2023-05-14T11:09:50;34.97;;;29.80;;
9080;SDS011;13509;50.760;6.080;2023-05-14T11:12:19;33.60;;;27.33;;
9080;SDS011;13509;50.760;6.080;2023-05-14T11:14:48;31.27;;;26.43;;
9080;SDS011;13509;50.760;6.080;2023-05-14T11:17:17;35.23;;;28.07;;
9080;SDS011;13509;50.760;6.080;2023-05-14T11:19:46;28.37;;;24.67;;
9080;SDS011;13509;50.760;6.080;2023-05-14T11:22:18;31.93;;;27.30;;
9080;SDS011;13509;50.760;6.080;2023-05-14T11:24:46;31.53;;;27.10;;
9080;SDS011;13509;50.760;6.080;2023-05-14T11:27:14;29.87;;;26.63;;
9080;SDS011;13509;50.760;6.080;2023-05-14T11:29:44;27.17;;;22.90;;
9080;SDS011;13509;50.760;6.080;2023-05-14T11:32:13;30.20;;;25.27;;
9080;SDS011;13509;50.760;6.080;2023-05-14T11:34:42;26.07;;;23.27;;
9080;SDS011;13509;50.760;6.080;2023-05-14T11:37:11;32.77;;;25.60;;
9080;SDS011;13509;50.760;6.080;2023-05-14T11:39:46;27.40;;;23.37;;
9080;SDS011;13509;50.760;6.080;2023-05-14T11:42:15;23.93;;;21.30;;
9080;SDS011;13509;50.760;6.080;2023-05-14T11:44:45;21.17;;;18.97;;
9080;SDS011;13509;50.760;6.080;2023-05-14T11:47:14;26.47;;;23.53;;
9080;SDS011;13509;50.760;6.080;2023-05-14T11:49:42;27.60;;;22.27;;
9080;SDS011;13509;50.760;6.080;2023-05-14T11:52:12;26.73;;;23.67;;
9080;SDS011;13509;50.760;6.080;2023-05-14T11:54:47;26.67;;;23.77;;
9080;SDS011;13509;50.760;6.080;2023-05-14T11:57:16;27.53;;;24.07;;
9080;SDS011;13509;50.760;6.080;2023-05-14T11:59:46;27.57;;;23.37;;
9080;SDS011;13509;50.760;6.080;2023-05-14T12:02:16;26.13;;;22.90;;
9080;SDS011;13509;50.760;6.080;2023-05-14T12:04:48;26.30;;;21.53;;
9080;SDS011;13509;50.760;6.080;2023-05-14T12:07:17;25.37;;;21.40;;
9080;SDS011;13509;50.760;6.080;2023-05-14T12:09:47;23.03;;;19.10;;
9080;SDS011;13509;50.760;6.080;2023-05-14T12:12:17;19.23;;;16.40;;
9080;SDS011;13509;50.760;6.080;2023-05-14T12:14:45;19.80;;;14.97;;
9080;SDS011;13509;50.760;6.080;2023-05-14T12:17:14;20.23;;;15.23;;
9080;SDS011;13509;50.760;6.080;2023-05-14T12:19:43;19.80;;;17.17;;
9080;SDS011;13509;50.760;6.080;2023-05-14T12:22:12;19.07;;;16.73;;
9080;SDS011;13509;50.760;6.080;2023-05-14T12:24:41;21.20;;;16.70;;
9080;SDS011;13509;50.760;6.080;2023-05-14T12:27:11;20.43;;;17.77;;
9080;SDS011;13509;50.760;6.080;2023-05-14T12:29:39;19.43;;;17.17;;
9080;SDS011;13509;50.760;6.080;2023-05-14T12:32:10;19.30;;;15.67;;
9080;SDS011;13509;50.760;6.080;2023-05-14T12:34:38;19.20;;;13.97;;
9080;SDS011;13509;50.760;6.080;2023-05-14T12:37:06;17.23;;;13.67;;
9080;SDS011;13509;50.760;6.080;2023-05-14T12:39:34;17.90;;;15.37;;
9080;SDS011;13509;50.760;6.080;2023-05-14T12:42:02;21.33;;;15.57;;
9080;SDS011;13509;50.760;6.080;2023-05-14T12:44:32;18.80;;;15.10;;
9080;SDS011;13509;50.760;6.080;2023-05-14T12:47:00;18.87;;;16.87;;
9080;SDS011;13509;50.760;6.080;2023-05-14T12:49:28;13.93;;;12.03;;
9080;SDS011;13509;50.760;6.080;2023-05-14T12:51:57;14.53;;;9.40;;
9080;SDS011;13509;50.760;6.080;2023-05-14T12:54:45;15.57;;;12.47;;
9080;SDS011;13509;50.760;6.080;2023-05-14T12:57:13;15.70;;;14.03;;
9080;SDS011;13509;50.760;6.080;2023-05-14T12:59:43;15.77;;;14.17;;
9080;SDS011;13509;50.760;6.080;2023-05-14T13:02:11;17.10;;;11.50;;
9080;SDS011;13509;50.760;6.080;2023-05-14T13:04:42;11.40;;;9.77;;
9080;SDS011;13509;50.760;6.080;2023-05-14T13:07:10;12.20;;;8.07;;
9080;SDS011;13509;50.760;6.080;2023-05-14T13:09:38;17.83;;;15.37;;
9080;SDS011;13509;50.760;6.080;2023-05-14T13:12:07;13.87;;;10.80;;
9080;SDS011;13509;50.760;6.080;2023-05-14T13:14:35;13.67;;;9.90;;
9080;SDS011;13509;50.760;6.080;2023-05-14T13:17:05;11.30;;;9.93;;
9080;SDS011;13509;50.760;6.080;2023-05-14T13:19:33;11.43;;;8.83;;
9080;SDS011;13509;50.760;6.080;2023-05-14T13:22:01;10.73;;;8.80;;
9080;SDS011;13509;50.760;6.080;2023-05-14T13:24:30;13.37;;;11.27;;
9080;SDS011;13509;50.760;6.080;2023-05-14T13:26:58;12.73;;;11.43;;
9080;SDS011;13509;50.760;6.080;2023-05-14T13:29:26;15.37;;;9.20;;
9080;SDS011;13509;50.760;6.080;2023-05-14T13:31:56;14.87;;;11.50;;
9080;SDS011;13509;50.760;6.080;2023-05-14T13:34:26;12.40;;;11.10;;
9080;SDS011;13509;50.760;6.080;2023-05-14T13:36:54;13.43;;;10.30;;
9080;SDS011;13509;50.760;6.080;2023-05-14T13:39:23;12.37;;;10.40;;
9080;SDS011;13509;50.760;6.080;2023-05-14T13:41:52;14.20;;;11.00;;
9080;SDS011;13509;50.760;6.080;2023-05-14T13:44:21;11.80;;;10.53;;
9080;SDS011;13509;50.760;6.080;2023-05-14T13:46:50;11.87;;;9.70;;
9080;SDS011;13509;50.760;6.080;2023-05-14T13:49:18;11.00;;;8.80;;
9080;SDS011;13509;50.760;6.080;2023-05-14T13:51:48;10.30;;;8.97;;
9080;SDS011;13509;50.760;6.080;2023-05-14T13:54:16;15.30;;;9.90;;
9080;SDS011;13509;50.760;6.080;2023-05-14T13:56:44;11.67;;;9.43;;
9080;SDS011;13509;50.760;6.080;2023-05-14T13:59:13;10.53;;;9.13;;
9080;SDS011;13509;50.760;6.080;2023-05-14T14:01:41;11.23;;;10.03;;
9080;SDS011;13509;50.760;6.080;2023-05-14T14:04:09;13.20;;;10.37;;
9080;SDS011;13509;50.760;6.080;2023-05-14T14:06:37;10.60;;;9.50;;
9080;SDS011;13509;50.760;6.080;2023-05-14T14:09:07;10.63;;;9.53;;
9080;SDS011;13509;50.760;6.080;2023-05-14T14:11:36;12.90;;;8.83;;
9080;SDS011;13509;50.760;6.080;2023-05-14T14:14:04;13.73;;;9.53;;
9080;SDS011;13509;50.760;6.080;2023-05-14T14:16:32;9.03;;;8.13;;
9080;SDS011;13509;50.760;6.080;2023-05-14T14:19:01;8.93;;;8.00;;
9080;SDS011;13509;50.760;6.080;2023-05-14T14:21:29;8.67;;;7.67;;
9080;SDS011;13509;50.760;6.080;2023-05-14T14:23:58;7.57;;;6.83;;
9080;SDS011;13509;50.760;6.080;2023-05-14T14:26:27;7.33;;;6.40;;
9080;SDS011;13509;50.760;6.080;2023-05-14T14:28:56;6.73;;;5.90;;
9080;SDS011;13509;50.760;6.080;2023-05-14T14:31:24;10.17;;;5.47;;
9080;SDS011;13509;50.760;6.080;2023-05-14T14:33:52;6.80;;;5.33;;
9080;SDS011;13509;50.760;6.080;2023-05-14T14:36:20;4.97;;;4.47;;
9080;SDS011;13509;50.760;6.080;2023-05-14T14:38:49;9.33;;;6.30;;
9080;SDS011;13509;50.760;6.080;2023-05-14T14:41:17;5.93;;;5.43;;
9080;SDS011;13509;50.760;6.080;2023-05-14T14:43:47;6.53;;;5.93;;
9080;SDS011;13509;50.760;6.080;2023-05-14T14:46:15;7.73;;;6.50;;
9080;SDS011;13509;50.760;6.080;2023-05-14T14:48:43;6.10;;;5.50;;
9080;SDS011;13509;50.760;6.080;2023-05-14T14:51:11;5.83;;;5.03;;
9080;SDS011;13509;50.760;6.080;2023-05-14T14:53:40;5.63;;;4.40;;
9080;SDS011;13509;50.760;6.080;2023-05-14T14:56:08;8.40;;;4.33;;
9080;SDS011;13509;50.760;6.080;2023-05-14T14:58:36;5.07;;;4.57;;